Time;durP1;ratioP1;P1;durP2;ratioP2;P2;SDS_P1;SDS_P2;PMS_P1;PMS_P2;Temp;Humidity;BMP_temperature;BMP_pressure;BME280_temperature;BME280_humidity;BME280_pressure;Samples;Min_cycle;Max_cycle;Signal;HPM_P1;HPM_P2
2022/11/20 00:01:17;;;;;;;2.67;2.03;;;6.50;95.40;;;;;;5063972;28;20545;-90
2022/11/20 00:03:44;;;;;;;2.63;2.10;;;6.50;95.40;;;;;;5066523;28;20200;-90
2022/11/20 00:06:15;;;;;;;3.08;2.10;;;6.60;95.40;;;;;;5068816;28;20231;-89
2022/11/20 00:08:42;;;;;;;2.40;2.00;;;6.60;94.80;;;;;;5063741;28;20201;-90
2022/11/20 00:11:11;;;;;;;2.40;2.20;;;6.60;95.00;;;;;;5064807;28;20288;-91
2022/11/20 00:13:38;;;;;;;2.33;2.10;;;6.70;95.00;;;;;;5068369;28;20196;-89
2022/11/20 00:16:07;;;;;;;3.20;2.33;;;6.60;95.40;;;;;;5069836;28;20591;-90
2022/11/20 00:18:35;;;;;;;2.47;2.13;;;6.60;95.40;;;;;;5068042;28;20201;-89
2022/11/20 00:21:03;;;;;;;2.45;2.17;;;6.50;95.40;;;;;;5062603;28;20251;-90
2022/11/20 00:23:34;;;;;;;2.67;2.30;;;6.40;95.40;;;;;;5067724;28;20289;-90
2022/11/20 00:26:03;;;;;;;2.33;2.13;;;6.50;95.40;;;;;;5059729;28;20228;-90
2022/11/20 00:28:30;;;;;;;5.22;2.70;;;6.60;95.40;;;;;;5066730;28;20201;-90
2022/11/20 00:31:02;;;;;;;2.63;2.13;;;6.50;95.40;;;;;;5062349;28;20288;-90
2022/11/20 00:33:29;;;;;;;4.28;2.35;;;6.60;95.80;;;;;;5068775;28;20209;-90
2022/11/20 00:36:03;;;;;;;3.10;2.22;;;6.60;95.40;;;;;;5069792;28;20585;-90
2022/11/20 00:38:30;;;;;;;5.72;2.35;;;6.60;95.40;;;;;;5072725;28;20233;-90
2022/11/20 00:41:02;;;;;;;3.15;2.30;;;6.60;95.40;;;;;;5065775;28;20288;-89
2022/11/20 00:43:29;;;;;;;2.90;2.60;;;6.50;95.40;;;;;;5065614;28;20207;-89
2022/11/20 00:45:59;;;;;;;4.45;2.40;;;6.50;96.10;;;;;;5067604;28;20227;-89
2022/11/20 00:48:27;;;;;;;2.92;2.45;;;6.40;96.30;;;;;;5065870;28;20216;-90
2022/11/20 00:50:53;;;;;;;3.38;2.28;;;6.40;96.40;;;;;;5062586;28;20217;-90
2022/11/20 00:53:26;;;;;;;3.25;2.55;;;6.50;96.30;;;;;;5068782;28;20223;-90
2022/11/20 00:55:55;;;;;;;4.57;2.60;;;6.50;96.80;;;;;;5072588;28;20280;-90
2022/11/20 00:58:24;;;;;;;5.38;2.80;;;6.50;96.50;;;;;;5069148;28;20201;-89
2022/11/20 01:01:01;;;;;;;3.08;2.53;;;6.50;96.40;;;;;;5064961;28;20566;-89
2022/11/20 01:03:31;;;;;;;3.70;2.30;;;6.50;95.90;;;;;;5069734;28;20571;-90
2022/11/20 01:06:33;;;;;;;4.28;2.40;;;6.60;96.00;;;;;;5060777;28;20684;-89
2022/11/20 01:09:02;;;;;;;2.50;2.30;;;6.60;95.70;;;;;;5063369;28;20292;-89
2022/11/20 01:11:31;;;;;;;2.90;2.22;;;6.70;95.40;;;;;;5071701;28;20613;-89
2022/11/20 01:14:00;;;;;;;2.83;2.30;;;6.60;95.40;;;;;;5068087;28;20203;-90
2022/11/20 01:16:35;;;;;;;2.35;2.10;;;6.70;95.40;;;;;;5068022;28;20638;-90
2022/11/20 01:19:03;;;;;;;2.53;2.30;;;6.70;95.40;;;;;;5075494;28;20197;-89
2022/11/20 01:21:32;;;;;;;2.95;2.30;;;6.70;95.40;;;;;;5067428;28;20244;-90
2022/11/20 01:24:00;;;;;;;2.95;2.25;;;6.70;95.40;;;;;;5067687;28;20194;-89
2022/11/20 01:26:29;;;;;;;4.53;2.17;;;6.70;95.00;;;;;;5071933;28;20228;-89
2022/11/20 01:28:59;;;;;;;2.30;2.10;;;6.80;94.90;;;;;;5064878;28;20193;-89
2022/11/20 01:31:29;;;;;;;4.72;2.33;;;6.70;95.00;;;;;;5073323;28;20290;-89
2022/11/20 01:33:58;;;;;;;2.65;2.30;;;6.60;95.00;;;;;;5070141;28;20266;-89
2022/11/20 01:36:26;;;;;;;2.90;2.20;;;6.60;95.40;;;;;;5068587;28;20213;-89
2022/11/20 01:38:54;;;;;;;2.42;2.22;;;6.50;95.40;;;;;;5071105;28;20219;-90
2022/11/20 01:44:06;;;;;;;2.40;2.20;;;6.50;95.40;;;;;;5071628;28;20321;-89
2022/11/20 01:46:43;;;;;;;3.05;1.88;;;6.50;95.70;;;;;;5064470;28;20230;-90
2022/11/20 01:49:17;;;;;;;2.25;2.05;;;6.50;96.20;;;;;;5063967;28;20291;-89
2022/11/20 01:51:49;;;;;;;2.80;2.13;;;6.50;95.40;;;;;;5068284;28;20210;-89
2022/11/20 01:54:25;;;;;;;2.22;2.03;;;6.50;95.40;;;;;;5074329;28;20693;-90
2022/11/20 01:56:57;;;;;;;2.63;2.00;;;6.50;95.40;;;;;;5070364;28;20231;-90
2022/11/20 01:59:29;;;;;;;2.70;1.80;;;6.50;95.40;;;;;;5068360;28;20197;-90
2022/11/20 02:01:57;;;;;;;2.25;2.00;;;6.50;95.40;;;;;;5072389;28;20200;-90
2022/11/20 02:04:25;;;;;;;2.72;2.10;;;6.60;95.40;;;;;;5068831;28;20212;-90
2022/11/20 02:06:58;;;;;;;2.35;2.15;;;6.40;95.40;;;;;;5085540;28;20216;-90
2022/11/20 02:09:32;;;;;;;2.60;2.28;;;6.40;95.40;;;;;;5069329;28;20240;-89
2022/11/20 02:12:04;;;;;;;2.45;2.22;;;6.40;96.00;;;;;;5077905;28;20204;-90
2022/11/20 02:14:37;;;;;;;4.22;2.10;;;6.40;96.10;;;;;;5079623;28;20345;-89
2022/11/20 02:17:06;;;;;;;3.05;2.60;;;6.50;95.40;;;;;;5085991;28;20213;-90
2022/11/20 02:19:33;;;;;;;2.70;2.20;;;6.40;95.40;;;;;;5064168;28;20324;-90
2022/11/20 02:22:06;;;;;;;4.15;2.28;;;6.50;95.40;;;;;;5071378;28;20838;-89
2022/11/20 02:27:17;;;;;;;3.15;2.25;;;6.40;95.40;;;;;;5072906;28;20634;-90
2022/11/20 02:29:50;;;;;;;4.18;2.35;;;6.40;95.40;;;;;;5070969;28;20296;-90
2022/11/20 02:32:20;;;;;;;2.85;2.10;;;6.40;95.40;;;;;;5071031;28;20678;-90
2022/11/20 02:34:46;;;;;;;3.25;2.40;;;6.50;95.40;;;;;;5067977;28;20202;-90
2022/11/20 02:37:14;;;;;;;2.78;2.30;;;6.40;95.40;;;;;;5070297;28;20300;-90
2022/11/20 02:39:44;;;;;;;3.78;2.40;;;6.30;95.40;;;;;;5069232;28;20201;-90
2022/11/20 02:42:11;;;;;;;3.33;2.47;;;6.40;95.40;;;;;;5067926;28;20229;-90
2022/11/20 02:44:38;;;;;;;2.60;2.30;;;6.40;95.40;;;;;;5073857;28;20213;-90
2022/11/20 02:47:04;;;;;;;3.33;2.60;;;6.30;95.40;;;;;;5067951;28;20214;-89
2022/11/20 02:49:32;;;;;;;3.08;2.30;;;6.30;95.30;;;;;;5074121;28;20205;-90
2022/11/20 02:51:58;;;;;;;2.33;2.13;;;6.30;95.40;;;;;;5068270;28;20722;-89
2022/11/20 02:54:26;;;;;;;2.53;2.20;;;6.30;95.40;;;;;;5070635;28;20313;-90
2022/11/20 02:56:54;;;;;;;3.63;2.33;;;6.30;95.40;;;;;;5069159;28;20205;-90
2022/11/20 02:59:21;;;;;;;2.50;2.20;;;6.30;95.40;;;;;;5075357;28;20211;-90
2022/11/20 03:01:48;;;;;;;2.67;2.33;;;6.30;95.60;;;;;;5065730;28;20304;-89
2022/11/20 03:04:15;;;;;;;2.83;2.30;;;6.30;95.40;;;;;;5070925;28;20211;-89
2022/11/20 03:06:42;;;;;;;4.07;2.50;;;6.20;95.30;;;;;;5069825;28;20232;-90
2022/11/20 03:09:09;;;;;;;2.90;2.30;;;6.30;95.40;;;;;;5068915;28;20197;-89
2022/11/20 03:11:36;;;;;;;3.28;2.30;;;6.40;95.40;;;;;;5070565;28;20205;-89
2022/11/20 03:14:05;;;;;;;2.90;2.40;;;6.30;95.30;;;;;;5066099;28;20194;-90
2022/11/20 03:16:32;;;;;;;2.65;2.38;;;6.40;95.20;;;;;;5062671;28;20225;-89
2022/11/20 03:19:02;;;;;;;2.97;2.50;;;6.40;94.80;;;;;;5059163;28;20197;-90
2022/11/20 03:21:29;;;;;;;3.42;2.53;;;6.30;95.40;;;;;;5059737;28;20212;-89
2022/11/20 03:23:56;;;;;;;4.47;2.50;;;6.30;95.40;;;;;;5067925;28;20206;-90
2022/11/20 03:26:25;;;;;;;2.95;2.65;;;6.40;95.40;;;;;;5063794;28;20216;-90
2022/11/20 03:28:53;;;;;;;3.35;2.60;;;6.50;94.50;;;;;;5081839;28;20227;-90
2022/11/20 03:31:23;;;;;;;4.97;2.58;;;6.50;94.00;;;;;;5071465;28;20202;-90
2022/11/20 03:33:50;;;;;;;2.85;2.58;;;6.40;94.50;;;;;;5056964;28;20638;-90
2022/11/20 03:36:19;;;;;;;2.75;2.40;;;6.50;94.00;;;;;;5062435;28;20229;-90
2022/11/20 03:38:50;;;;;;;3.08;2.63;;;6.50;94.30;;;;;;5069418;28;20208;-90
2022/11/20 03:41:22;;;;;;;2.80;2.50;;;6.50;94.00;;;;;;5063961;28;20541;-89
2022/11/20 03:43:50;;;;;;;2.88;2.38;;;6.50;93.90;;;;;;5069698;28;20720;-90
2022/11/20 03:46:17;;;;;;;5.10;2.80;;;6.50;93.40;;;;;;5068127;28;20209;-89
2022/11/20 03:48:45;;;;;;;3.72;2.60;;;6.50;93.20;;;;;;5075950;28;20292;-89
2022/11/20 03:51:14;;;;;;;2.90;2.60;;;6.60;93.00;;;;;;5068738;28;20283;-90
2022/11/20 03:53:41;;;;;;;3.20;2.53;;;6.60;92.80;;;;;;5071480;28;20235;-91
2022/11/20 03:56:09;;;;;;;2.95;2.30;;;6.50;93.00;;;;;;5063362;28;20193;-90
2022/11/20 03:58:37;;;;;;;3.95;2.60;;;6.50;93.50;;;;;;5067792;28;20305;-90
2022/11/20 04:01:08;;;;;;;3.30;2.50;;;6.40;93.70;;;;;;5069400;28;20198;-90
2022/11/20 04:03:37;;;;;;;3.33;2.53;;;6.30;94.00;;;;;;5065886;28;20224;-90
2022/11/20 04:06:08;;;;;;;3.83;2.83;;;6.40;93.80;;;;;;5071712;28;20202;-90
2022/11/20 04:08:56;;;;;;;2.90;2.60;;;6.40;93.40;;;;;;5025004;28;20209;-90
2022/11/20 04:11:25;;;;;;;3.27;2.63;;;6.40;93.00;;;;;;5021572;28;20290;-91
2022/11/20 04:13:54;;;;;;;3.90;2.53;;;6.40;93.30;;;;;;5011149;28;20203;-90
2022/11/20 04:16:23;;;;;;;3.63;2.60;;;6.40;93.10;;;;;;5028590;28;20286;-90
2022/11/20 04:18:53;;;;;;;3.70;2.65;;;6.30;93.80;;;;;;5018769;28;20293;-90
2022/11/20 04:21:22;;;;;;;3.20;2.85;;;6.30;93.90;;;;;;5021631;28;20217;-90
2022/11/20 04:23:49;;;;;;;3.05;2.53;;;6.40;93.40;;;;;;5031074;28;20248;-89
2022/11/20 04:26:17;;;;;;;3.50;2.50;;;6.40;93.20;;;;;;5032807;28;20317;-90
2022/11/20 04:28:44;;;;;;;3.00;2.70;;;6.40;93.10;;;;;;5069155;28;20205;-90
2022/11/20 04:31:12;;;;;;;3.50;2.58;;;6.40;93.30;;;;;;5078703;28;20292;-90
2022/11/20 04:33:39;;;;;;;3.30;2.58;;;6.30;93.20;;;;;;5069474;28;20300;-90
2022/11/20 04:36:08;;;;;;;3.35;2.72;;;6.40;93.40;;;;;;5061098;28;20729;-90
2022/11/20 04:38:36;;;;;;;2.53;2.30;;;6.40;93.20;;;;;;5079658;28;20214;-89
2022/11/20 04:41:05;;;;;;;2.47;2.28;;;6.50;92.70;;;;;;5065308;28;20283;-90
2022/11/20 04:43:33;;;;;;;2.63;2.42;;;6.50;92.50;;;;;;5068977;28;20216;-90
2022/11/20 04:46:02;;;;;;;3.10;2.60;;;6.50;92.10;;;;;;5065243;28;20293;-89
2022/11/20 04:48:30;;;;;;;3.40;2.43;;;6.40;92.70;;;;;;5059583;28;20591;-89
2022/11/20 04:50:57;;;;;;;3.03;2.60;;;6.40;92.40;;;;;;5068485;28;20205;-89
2022/11/20 04:53:26;;;;;;;3.30;3.00;;;6.40;92.70;;;;;;5063949;28;20562;-90
2022/11/20 04:56:01;;;;;;;2.80;2.50;;;6.40;92.50;;;;;;5068627;28;20910;-90
2022/11/20 04:58:28;;;;;;;3.10;2.53;;;6.40;92.40;;;;;;5071843;28;20213;-90
2022/11/20 05:00:55;;;;;;;3.00;2.55;;;6.40;92.70;;;;;;5074030;28;20303;-90
2022/11/20 05:03:21;;;;;;;3.15;2.67;;;6.30;92.80;;;;;;5072018;28;20284;-89
2022/11/20 05:05:48;;;;;;;3.42;2.50;;;6.30;92.80;;;;;;5065409;28;20255;-90
2022/11/20 05:08:15;;;;;;;4.82;2.67;;;6.20;93.20;;;;;;5062786;28;20216;-90
2022/11/20 05:10:44;;;;;;;4.03;2.65;;;6.30;93.30;;;;;;5071574;28;20328;-90
2022/11/20 05:13:13;;;;;;;3.78;2.88;;;6.30;92.90;;;;;;5078327;28;20300;-90
2022/11/20 05:15:39;;;;;;;3.33;2.90;;;6.40;92.80;;;;;;5065218;28;20193;-90
2022/11/20 05:18:07;;;;;;;2.78;2.53;;;6.30;93.20;;;;;;5073885;28;20199;-91
2022/11/20 05:20:35;;;;;;;3.13;2.90;;;6.40;92.90;;;;;;5077299;28;20676;-90
2022/11/20 05:23:03;;;;;;;3.40;2.65;;;6.30;93.10;;;;;;5076779;28;20725;-90
2022/11/20 05:25:30;;;;;;;3.50;2.75;;;6.30;92.80;;;;;;5066357;28;20246;-90
2022/11/20 05:27:57;;;;;;;4.23;3.00;;;6.30;93.00;;;;;;5071760;28;20235;-90
2022/11/20 05:33:05;;;;;;;5.13;3.00;;;6.40;92.50;;;;;;5068553;28;20232;-90
2022/11/20 05:35:33;;;;;;;4.15;2.70;;;6.30;92.80;;;;;;5075612;28;20205;-90
2022/11/20 05:38:00;;;;;;;2.70;2.50;;;6.30;92.90;;;;;;5067556;28;20209;-90
2022/11/20 05:40:26;;;;;;;4.97;3.00;;;6.30;92.70;;;;;;5059676;28;20220;-90
2022/11/20 05:42:53;;;;;;;3.20;2.70;;;6.20;93.20;;;;;;5068828;28;20201;-91
2022/11/20 05:45:20;;;;;;;3.10;2.80;;;6.20;92.90;;;;;;5061148;28;20198;-90
2022/11/20 05:47:48;;;;;;;4.43;3.03;;;6.30;92.90;;;;;;5064277;28;20227;-90
2022/11/20 05:50:16;;;;;;;3.47;2.70;;;6.30;92.70;;;;;;5071948;28;20197;-90
2022/11/20 05:52:43;;;;;;;4.30;2.80;;;6.20;93.10;;;;;;5068827;28;20616;-90
2022/11/20 05:55:10;;;;;;;3.67;2.90;;;6.20;93.10;;;;;;5069105;28;20336;-89
2022/11/20 05:57:37;;;;;;;2.70;2.50;;;6.20;92.90;;;;;;5066456;28;20236;-89
2022/11/20 06:00:05;;;;;;;2.90;2.60;;;6.30;92.70;;;;;;5066713;28;20669;-90
2022/11/20 06:02:35;;;;;;;2.70;2.50;;;6.30;92.70;;;;;;5071638;28;20237;-90
2022/11/20 06:05:04;;;;;;;2.95;2.70;;;6.20;93.00;;;;;;5065783;28;20201;-90
2022/11/20 06:07:31;;;;;;;4.40;2.80;;;6.20;92.90;;;;;;5066898;28;20219;-90
2022/11/20 06:09:58;;;;;;;2.63;2.37;;;6.10;93.00;;;;;;5070704;28;20209;-90
2022/11/20 06:12:25;;;;;;;4.37;2.47;;;6.20;92.90;;;;;;5071529;28;20300;-90
2022/11/20 06:14:52;;;;;;;3.20;2.20;;;6.20;92.90;;;;;;5059887;28;20211;-90
2022/11/20 06:17:19;;;;;;;2.97;2.67;;;6.20;93.00;;;;;;5065050;28;20742;-91
2022/11/20 06:19:45;;;;;;;3.53;2.60;;;6.20;92.90;;;;;;5066785;28;20236;-90
2022/11/20 06:22:14;;;;;;;2.40;2.20;;;6.20;92.60;;;;;;5074935;28;20207;-89
2022/11/20 06:24:41;;;;;;;2.50;2.27;;;6.10;92.60;;;;;;5073545;28;20690;-90
2022/11/20 06:27:07;;;;;;;4.17;2.60;;;6.10;92.60;;;;;;5080638;28;20282;-90
2022/11/20 06:29:34;;;;;;;2.37;2.17;;;6.00;92.30;;;;;;5061633;28;20667;-90
2022/11/20 06:32:01;;;;;;;2.97;2.40;;;5.90;92.60;;;;;;5076922;28;20556;-91
2022/11/20 06:34:28;;;;;;;2.87;2.27;;;5.80;92.60;;;;;;5072655;28;20220;-89
2022/11/20 06:36:55;;;;;;;2.20;2.00;;;5.70;92.50;;;;;;5080187;28;20287;-89
2022/11/20 06:39:26;;;;;;;3.07;2.17;;;5.70;92.40;;;;;;5079362;28;20201;-89
2022/11/20 06:41:57;;;;;;;2.90;2.50;;;5.70;92.50;;;;;;5062132;28;20206;-90
2022/11/20 06:44:24;;;;;;;2.30;1.93;;;5.70;92.30;;;;;;5069876;28;20202;-89
2022/11/20 06:46:50;;;;;;;5.37;2.37;;;5.60;92.40;;;;;;5069378;28;20722;-90
2022/11/20 06:49:17;;;;;;;1.90;1.80;;;5.70;91.80;;;;;;5059804;28;20231;-90
2022/11/20 06:51:44;;;;;;;2.80;2.00;;;5.60;92.10;;;;;;5067902;28;20717;-90
2022/11/20 06:54:11;;;;;;;1.73;1.63;;;5.70;91.50;;;;;;5067556;28;20219;-90
2022/11/20 06:56:39;;;;;;;4.67;2.00;;;5.70;91.40;;;;;;5069531;28;20205;-90
2022/11/20 06:59:07;;;;;;;1.93;1.70;;;5.80;91.50;;;;;;5070006;28;20209;-90
2022/11/20 07:01:34;;;;;;;2.10;1.77;;;5.90;91.20;;;;;;5070568;28;20656;-90
2022/11/20 07:04:01;;;;;;;1.87;1.70;;;6.00;91.10;;;;;;5056737;28;20198;-90
2022/11/20 07:06:28;;;;;;;2.35;2.00;;;6.00;91.20;;;;;;5058600;28;20206;-90
2022/11/20 07:08:55;;;;;;;2.17;1.90;;;6.00;91.20;;;;;;5071179;28;20312;-90
2022/11/20 07:11:22;;;;;;;3.10;2.00;;;6.10;90.60;;;;;;5076396;28;20293;-90
2022/11/20 07:13:51;;;;;;;2.10;1.90;;;6.10;90.50;;;;;;5066509;28;20636;-91
2022/11/20 07:16:18;;;;;;;2.43;2.20;;;6.30;90.00;;;;;;5063567;28;20209;-90
2022/11/20 07:18:45;;;;;;;2.30;2.10;;;6.30;90.10;;;;;;5058864;28;20205;-90
2022/11/20 07:21:12;;;;;;;2.92;2.10;;;6.20;90.50;;;;;;5065277;28;20233;-89
2022/11/20 07:23:39;;;;;;;2.60;2.40;;;6.30;90.60;;;;;;5056536;28;20280;-90
2022/11/20 07:26:06;;;;;;;2.80;2.50;;;6.40;91.20;;;;;;5065689;28;20256;-90
2022/11/20 07:28:34;;;;;;;3.77;2.47;;;6.30;91.40;;;;;;5063418;28;20257;-90
2022/11/20 07:31:04;;;;;;;3.33;3.03;;;6.30;91.20;;;;;;5060022;28;20616;-90
2022/11/20 07:33:33;;;;;;;3.03;2.77;;;6.30;91.30;;;;;;5056233;28;20237;-90
2022/11/20 07:36:00;;;;;;;3.00;2.70;;;6.30;91.50;;;;;;5067739;28;20283;-89
2022/11/20 07:38:27;;;;;;;4.47;2.80;;;6.40;91.30;;;;;;5067502;28;20197;-91
2022/11/20 07:40:56;;;;;;;2.95;2.63;;;6.40;91.00;;;;;;5061925;28;20629;-90
2022/11/20 07:43:23;;;;;;;3.70;2.67;;;6.40;91.50;;;;;;5059195;28;20246;-90
2022/11/20 07:45:49;;;;;;;4.65;2.60;;;6.40;91.60;;;;;;5067493;28;20341;-90
2022/11/20 07:48:18;;;;;;;3.85;2.42;;;6.40;91.40;;;;;;5058051;28;20225;-90
2022/11/20 07:50:45;;;;;;;3.23;2.57;;;6.50;90.70;;;;;;5053298;28;20530;-90
2022/11/20 07:53:20;;;;;;;3.40;2.72;;;6.50;90.30;;;;;;5060193;28;20260;-90
2022/11/20 07:55:47;;;;;;;3.03;2.33;;;6.50;90.80;;;;;;5060747;28;20209;-90
2022/11/20 07:58:14;;;;;;;2.50;2.30;;;6.50;90.00;;;;;;5068723;28;20252;-90
2022/11/20 08:00:41;;;;;;;2.23;2.03;;;6.50;89.90;;;;;;5060457;28;20581;-90
2022/11/20 08:03:08;;;;;;;2.77;2.30;;;6.60;90.00;;;;;;5054699;28;20233;-90
2022/11/20 08:05:37;;;;;;;3.97;2.42;;;6.60;90.00;;;;;;5057630;28;20283;-90
2022/11/20 08:08:08;;;;;;;2.60;2.00;;;6.70;88.90;;;;;;5068973;28;20315;-91
2022/11/20 08:10:44;;;;;;;2.90;2.20;;;6.70;88.20;;;;;;5070133;28;20235;-90
2022/11/20 08:15:58;;;;;;;4.27;2.40;;;6.70;87.40;;;;;;5064643;28;20208;-92
2022/11/20 08:18:32;;;;;;;2.67;2.33;;;6.70;88.30;;;;;;5071719;28;20621;-92
2022/11/20 08:23:46;;;;;;;4.03;2.20;;;6.70;86.70;;;;;;5018546;28;20214;-92
2022/11/20 08:26:13;;;;;;;2.20;2.00;;;6.80;86.90;;;;;;5027019;28;20203;-91
2022/11/20 08:28:39;;;;;;;3.45;2.28;;;6.70;87.40;;;;;;5037257;28;20317;-89
2022/11/20 08:31:06;;;;;;;3.78;2.05;;;6.70;86.30;;;;;;5025324;28;20207;-92
2022/11/20 08:33:38;;;;;;;2.72;2.10;;;6.80;87.10;;;;;;5020136;28;20285;-93
2022/11/20 08:38:52;;;;;;;2.22;2.03;;;7.00;83.40;;;;;;4943456;28;20212;-92
2022/11/20 08:42:02;;;;;;;4.07;2.00;;;7.00;83.60;;;;;;4953923;28;20232;-94
2022/11/20 08:44:32;;;;;;;4.18;2.25;;;7.00;82.90;;;;;;4951466;28;20292;-93
2022/11/20 08:49:50;;;;;;;2.30;2.10;;;7.10;82.90;;;;;;4945022;28;20236;-92
2022/11/20 08:52:22;;;;;;;3.25;2.10;;;7.20;82.40;;;;;;4950063;29;20197;-88
2022/11/20 08:54:48;;;;;;;2.15;1.95;;;7.30;81.30;;;;;;4978483;28;20222;-88
2022/11/20 08:57:18;;;;;;;2.45;2.25;;;7.30;81.40;;;;;;4988528;28;20719;-90
2022/11/20 08:59:45;;;;;;;2.10;1.90;;;7.40;81.00;;;;;;5004593;28;20218;-88
2022/11/20 09:02:15;;;;;;;2.13;1.92;;;7.50;79.20;;;;;;4996928;28;20702;-89
2022/11/20 09:04:43;;;;;;;2.35;2.03;;;7.60;78.70;;;;;;5013956;28;20663;-89
2022/11/20 09:07:28;;;;;;;2.83;1.98;;;7.70;77.10;;;;;;5004830;28;20211;-89
2022/11/20 09:09:57;;;;;;;2.25;1.90;;;7.70;76.20;;;;;;5039863;28;20223;-91
2022/11/20 09:12:24;;;;;;;2.03;1.83;;;7.70;77.00;;;;;;5068771;28;20676;-90
2022/11/20 09:14:51;;;;;;;3.67;1.83;;;7.60;78.90;;;;;;5064171;28;20288;-87
2022/11/20 09:17:19;;;;;;;2.08;1.80;;;7.70;76.30;;;;;;5076511;28;20236;-88
2022/11/20 09:19:45;;;;;;;3.58;2.17;;;7.70;72.70;;;;;;5066584;28;20537;-89
2022/11/20 09:22:12;;;;;;;2.10;1.88;;;7.70;72.60;;;;;;5064091;28;20554;-86
2022/11/20 09:24:42;;;;;;;2.17;1.98;;;7.60;74.10;;;;;;5058944;28;20724;-88
2022/11/20 09:27:09;;;;;;;1.90;1.70;;;7.60;75.50;;;;;;5068558;28;20228;-86
2022/11/20 09:29:36;;;;;;;2.83;2.00;;;7.60;75.40;;;;;;5058526;28;20533;-88
2022/11/20 09:32:03;;;;;;;2.25;2.05;;;7.70;75.10;;;;;;5057804;28;20202;-87
2022/11/20 09:34:30;;;;;;;3.30;1.85;;;7.80;72.60;;;;;;5061399;28;20230;-88
2022/11/20 09:37:14;;;;;;;2.13;1.70;;;7.90;72.80;;;;;;5069042;28;20224;-88
2022/11/20 09:39:49;;;;;;;1.92;1.77;;;8.00;73.00;;;;;;5068889;28;20293;-89
2022/11/20 09:45:28;;;;;;;2.33;1.70;;;8.20;66.90;;;;;;5069656;28;20202;-89
2022/11/20 09:48:14;;;;;;;2.05;1.85;;;8.20;69.30;;;;;;5071865;28;20204;-89
2022/11/20 09:50:50;;;;;;;1.85;1.58;;;8.30;67.60;;;;;;5066796;28;20693;-89
2022/11/20 09:53:25;;;;;;;3.97;1.70;;;8.30;66.30;;;;;;5069362;28;20217;-88
2022/11/20 09:55:53;;;;;;;2.05;1.58;;;8.30;63.00;;;;;;5067934;28;20237;-88
2022/11/20 09:58:31;;;;;;;2.28;1.70;;;8.40;60.60;;;;;;5071711;28;20208;-90
2022/11/20 10:01:04;;;;;;;1.70;1.50;;;8.40;59.40;;;;;;5070619;28;20215;-87
2022/11/20 10:03:40;;;;;;;2.45;1.40;;;8.20;62.60;;;;;;5064007;28;20205;-89
2022/11/20 10:06:13;;;;;;;2.08;1.65;;;8.30;59.10;;;;;;5069629;28;20254;-87
2022/11/20 10:08:45;;;;;;;2.83;1.75;;;8.50;58.90;;;;;;5058673;28;20783;-88
2022/11/20 10:11:23;;;;;;;2.28;1.52;;;9.10;60.00;;;;;;5063760;28;20202;-86
2022/11/20 10:13:58;;;;;;;2.45;1.60;;;9.90;48.30;;;;;;5068176;28;20203;-86
2022/11/20 10:16:37;;;;;;;1.67;1.58;;;10.00;41.30;;;;;;5060812;28;20211;-84
2022/11/20 10:19:22;;;;;;;2.10;1.50;;;9.90;46.50;;;;;;5067831;28;20262;-84
2022/11/20 10:22:02;;;;;;;2.05;1.70;;;10.10;43.60;;;;;;5063307;28;20308;-85
2022/11/20 10:24:44;;;;;;;1.85;1.60;;;10.00;44.40;;;;;;5069289;28;20291;-85
2022/11/20 10:27:36;;;;;;;1.70;1.60;;;9.90;43.60;;;;;;5072897;28;20197;-85
2022/11/20 10:30:08;;;;;;;1.98;1.77;;;10.00;43.20;;;;;;5068561;28;20320;-84
2022/11/20 10:33:08;;;;;;;2.20;1.70;;;10.00;42.50;;;;;;5067774;28;20213;-84
2022/11/20 10:35:39;;;;;;;1.58;1.40;;;9.90;44.70;;;;;;5065463;28;20300;-85
2022/11/20 10:38:16;;;;;;;2.50;1.73;;;9.80;44.30;;;;;;5059966;28;20209;-84
2022/11/20 10:40:46;;;;;;;4.43;1.50;;;10.00;44.00;;;;;;5065448;28;20217;-84
2022/11/20 10:43:18;;;;;;;4.43;1.42;;;10.00;44.20;;;;;;5071633;28;20334;-83
2022/11/20 10:45:57;;;;;;;1.73;1.50;;;10.00;42.40;;;;;;5066987;28;20665;-84
2022/11/20 10:48:26;;;;;;;1.98;1.50;;;9.90;42.80;;;;;;5063049;28;20310;-84
2022/11/20 10:51:05;;;;;;;3.92;1.52;;;9.80;43.40;;;;;;5067351;28;20209;-83
2022/11/20 10:53:45;;;;;;;1.73;1.40;;;9.80;44.40;;;;;;5067079;28;20557;-85
2022/11/20 10:56:19;;;;;;;2.90;1.40;;;9.60;45.60;;;;;;5067036;28;20608;-84
2022/11/20 10:59:01;;;;;;;1.90;1.50;;;9.50;48.00;;;;;;5061805;28;20272;-84
2022/11/20 11:01:42;;;;;;;1.60;1.50;;;9.40;45.10;;;;;;5066022;28;20305;-83
2022/11/20 11:04:24;;;;;;;1.80;1.40;;;9.20;46.00;;;;;;5073663;28;20205;-85
2022/11/20 11:06:52;;;;;;;2.00;1.50;;;9.20;47.70;;;;;;5070405;28;20215;-87
2022/11/20 11:09:29;;;;;;;2.42;1.48;;;9.10;47.60;;;;;;5078033;28;20301;-84
2022/11/20 11:11:56;;;;;;;1.70;1.60;;;9.20;47.70;;;;;;5072964;28;20217;-86
2022/11/20 11:14:24;;;;;;;2.10;1.73;;;9.20;47.70;;;;;;5074366;28;20462;-86
2022/11/20 11:17:03;;;;;;;2.60;1.48;;;9.30;50.70;;;;;;5069371;28;20204;-85
2022/11/20 11:19:29;;;;;;;1.55;1.45;;;9.30;49.50;;;;;;5072317;28;20683;-83
2022/11/20 11:22:28;;;;;;;1.25;1.15;;;9.20;51.20;;;;;;5075475;28;20301;-82
2022/11/20 11:25:03;;;;;;;2.00;1.60;;;9.20;50.70;;;;;;5075479;28;20198;-84
2022/11/20 11:27:30;;;;;;;3.65;1.35;;;9.10;52.20;;;;;;5074687;28;20196;-84
2022/11/20 11:30:15;;;;;;;1.83;1.35;;;9.10;52.80;;;;;;5075932;28;20644;-83
2022/11/20 11:32:51;;;;;;;1.95;1.55;;;9.30;54.90;;;;;;5065719;28;20686;-83
2022/11/20 11:35:29;;;;;;;2.60;1.52;;;9.40;54.40;;;;;;5070258;28;20199;-84
2022/11/20 11:38:05;;;;;;;1.58;1.42;;;9.50;53.70;;;;;;5068530;28;20291;-86
2022/11/20 11:40:34;;;;;;;1.70;1.40;;;9.40;49.70;;;;;;5069656;28;20748;-86
2022/11/20 11:43:05;;;;;;;3.05;1.95;;;9.40;49.80;;;;;;5069773;28;20251;-85
2022/11/20 11:45:32;;;;;;;2.13;1.65;;;9.30;50.00;;;;;;5077353;28;20291;-84
2022/11/20 11:48:04;;;;;;;1.40;1.30;;;9.10;50.90;;;;;;5076609;28;20228;-85
2022/11/20 11:50:31;;;;;;;1.83;1.50;;;9.10;51.20;;;;;;5075911;28;20256;-86
2022/11/20 11:53:13;;;;;;;1.60;1.50;;;9.10;51.90;;;;;;5070105;28;20225;-87
2022/11/20 11:56:05;;;;;;;1.42;1.30;;;9.10;52.20;;;;;;5071581;28;20190;-89
2022/11/20 11:58:52;;;;;;;1.40;1.30;;;9.20;50.90;;;;;;5055365;28;20229;-88
2022/11/20 12:04:58;;;;;;;1.27;1.20;;;9.30;52.20;;;;;;5075779;28;20594;-88
2022/11/20 12:07:37;;;;;;;1.50;1.40;;;9.40;50.50;;;;;;5082377;28;20562;-88
2022/11/20 12:10:39;;;;;;;4.63;1.30;;;9.40;49.80;;;;;;5071080;28;20307;-89
2022/11/20 12:13:33;;;;;;;1.98;1.58;;;9.40;52.50;;;;;;5072954;28;20608;-87
2022/11/20 12:16:35;;;;;;;1.63;1.50;;;9.40;50.90;;;;;;5071805;28;20201;-87
2022/11/20 12:19:05;;;;;;;1.95;1.60;;;9.20;53.50;;;;;;5066225;28;20783;-88
2022/11/20 12:21:46;;;;;;;1.85;1.67;;;9.10;54.50;;;;;;5078804;28;20208;-88
2022/11/20 12:24:48;;;;;;;2.15;1.70;;;8.90;63.80;;;;;;5066340;28;20694;-87
2022/11/20 12:27:53;;;;;;;2.03;1.88;;;8.80;74.30;;;;;;5061267;28;20240;-90
2022/11/20 12:30:21;;;;;;;1.77;1.67;;;8.70;71.50;;;;;;5039549;28;20248;-87
2022/11/20 12:33:16;;;;;;;1.83;1.63;;;8.60;71.80;;;;;;5044194;28;20593;-87
2022/11/20 12:36:03;;;;;;;1.52;1.42;;;8.50;73.50;;;;;;5037265;28;20202;-86
2022/11/20 12:39:17;;;;;;;2.05;1.50;;;8.30;75.90;;;;;;5035523;28;20664;-86
2022/11/20 12:45:15;;;;;;;2.67;1.60;;;7.90;83.70;;;;;;5033113;28;20244;-86
2022/11/20 12:48:14;;;;;;;1.55;1.45;;;7.80;86.00;;;;;;5049434;28;20292;-85
2022/11/20 12:50:51;;;;;;;2.00;1.70;;;7.70;87.70;;;;;;5041626;28;20213;-87
2022/11/20 12:53:32;;;;;;;2.28;1.70;;;7.70;87.80;;;;;;5043909;28;20249;-89
2022/11/20 12:56:07;;;;;;;1.70;1.60;;;7.80;87.90;;;;;;5042077;28;20459;-88
2022/11/20 12:59:00;;;;;;;2.50;1.90;;;7.80;86.60;;;;;;5038168;28;20194;-86
2022/11/20 13:01:42;;;;;;;1.75;1.65;;;7.70;86.70;;;;;;5043163;28;20709;-84
2022/11/20 13:04:19;;;;;;;2.10;1.90;;;7.70;87.80;;;;;;5036442;28;20209;-86
2022/11/20 13:06:51;;;;;;;1.50;1.40;;;7.70;89.10;;;;;;5047519;28;20274;-87
2022/11/20 13:09:25;;;;;;;8.23;1.80;;;7.70;89.30;;;;;;5066897;28;20252;-88
2022/11/20 13:12:03;;;;;;;2.22;1.98;;;7.70;90.20;;;;;;5069793;28;20257;-89
2022/11/20 13:14:53;;;;;;;2.25;1.90;;;7.70;90.20;;;;;;5062271;28;20241;-90
2022/11/20 13:17:28;;;;;;;2.30;1.80;;;7.70;87.40;;;;;;5064810;28;20278;-89
2022/11/20 13:20:00;;;;;;;2.35;1.50;;;7.70;88.10;;;;;;5073784;28;20291;-89
2022/11/20 13:22:45;;;;;;;1.73;1.63;;;7.80;88.00;;;;;;5072029;28;20327;-87
2022/11/20 13:25:23;;;;;;;2.47;1.70;;;7.70;89.00;;;;;;5067233;28;20205;-87
2022/11/20 13:27:50;;;;;;;1.65;1.55;;;7.60;87.90;;;;;;5068747;28;20287;-86
2022/11/20 13:30:21;;;;;;;2.08;1.83;;;7.60;90.20;;;;;;5070166;28;20308;-84
2022/11/20 13:32:57;;;;;;;2.15;1.80;;;7.40;90.10;;;;;;5061127;28;20415;-86
2022/11/20 13:35:58;;;;;;;2.65;1.90;;;7.30;90.70;;;;;;5056249;28;20602;-89
2022/11/20 13:45:31;;;;;;;2.03;1.73;;;7.30;91.00;;;;;;5054220;28;20188;-92
2022/11/20 13:48:05;;;;;;;2.58;1.50;;;7.30;90.60;;;;;;5057252;28;20288;-89
2022/11/20 13:50:44;;;;;;;2.72;2.17;;;7.30;90.50;;;;;;5190403;22;20225;-89
2022/11/20 13:53:26;;;;;;;2.10;1.90;;;7.30;90.80;;;;;;5042068;28;20508;-88
2022/11/20 13:56:18;;;;;;;2.80;1.88;;;7.40;90.70;;;;;;5052433;28;20233;-88
2022/11/20 13:58:55;;;;;;;2.60;2.40;;;7.50;90.10;;;;;;5022222;28;20635;-94